Time;durP1;ratioP1;P1;durP2;ratioP2;P2;SDS_P1;SDS_P2;PMS_P1;PMS_P2;Temp;Humidity;BMP_temperature;BMP_pressure;BME280_temperature;BME280_humidity;BME280_pressure;Samples;Min_cycle;Max_cycle;Signal;HPM_P1;HPM_P2
2023/11/22 00:00:45;;;;;;;15.63;13.50;;;5.10;99.90;;;;;;5079361;28;20549;-60
2023/11/22 00:03:12;;;;;;;16.27;14.47;;;5.10;99.90;;;;;;5078502;28;20493;-60
2023/11/22 00:05:39;;;;;;;16.50;14.60;;;5.10;99.90;;;;;;5078950;28;20926;-60
2023/11/22 00:08:06;;;;;;;14.87;13.20;;;5.10;99.90;;;;;;5078678;28;20825;-60
2023/11/22 00:10:34;;;;;;;13.97;12.30;;;5.00;99.90;;;;;;5078479;28;20464;-60
2023/11/22 00:13:01;;;;;;;15.00;12.80;;;5.00;99.90;;;;;;5078165;28;20551;-60
2023/11/22 00:15:28;;;;;;;15.27;13.77;;;5.00;99.90;;;;;;5078642;28;20462;-60
2023/11/22 00:18:01;;;;;;;15.60;12.90;;;4.90;99.90;;;;;;5078674;28;20461;-60
2023/11/22 00:20:29;;;;;;;16.13;13.10;;;4.90;99.90;;;;;;5078294;28;20892;-60
2023/11/22 00:22:57;;;;;;;15.17;13.50;;;4.90;99.90;;;;;;5078308;28;20588;-59
2023/11/22 00:25:24;;;;;;;17.70;14.30;;;4.90;99.90;;;;;;5078171;28;20458;-60
2023/11/22 00:27:51;;;;;;;16.63;14.00;;;5.00;99.90;;;;;;5078520;28;20465;-60
2023/11/22 00:30:18;;;;;;;18.07;14.90;;;4.90;99.90;;;;;;5078585;28;20950;-59
2023/11/22 00:32:46;;;;;;;14.87;13.20;;;4.90;99.90;;;;;;5078679;28;20879;-60
2023/11/22 00:35:15;;;;;;;15.70;12.60;;;4.90;99.90;;;;;;5078172;28;20457;-60
2023/11/22 00:37:43;;;;;;;15.60;13.30;;;4.90;99.90;;;;;;5078525;28;20457;-60
2023/11/22 00:40:11;;;;;;;14.23;12.70;;;4.90;99.90;;;;;;5078146;28;20458;-60
2023/11/22 00:42:39;;;;;;;16.20;13.30;;;4.90;99.90;;;;;;5078019;28;20528;-60
2023/11/22 00:45:08;;;;;;;14.03;12.43;;;4.90;99.90;;;;;;5078038;28;20751;-60
2023/11/22 00:47:35;;;;;;;20.00;13.87;;;4.90;99.90;;;;;;5078302;28;20461;-60
2023/11/22 00:50:04;;;;;;;14.80;13.07;;;5.00;99.90;;;;;;5077388;28;20457;-59
2023/11/22 00:52:32;;;;;;;14.77;12.40;;;4.80;99.90;;;;;;5077784;28;20457;-60
2023/11/22 00:54:59;;;;;;;15.40;13.80;;;4.80;99.90;;;;;;5077624;28;20500;-60
2023/11/22 00:57:29;;;;;;;13.73;12.33;;;4.80;99.90;;;;;;5078210;28;20457;-60
2023/11/22 00:59:57;;;;;;;14.10;12.53;;;4.80;99.90;;;;;;5078042;28;20453;-60
2023/11/22 01:02:24;;;;;;;14.50;12.27;;;4.80;99.90;;;;;;5077979;28;20521;-61
2023/11/22 01:04:51;;;;;;;14.80;12.97;;;4.80;99.90;;;;;;5077327;28;20457;-60
2023/11/22 01:07:18;;;;;;;17.27;12.93;;;4.80;99.90;;;;;;5077310;28;20491;-61
2023/11/22 01:09:47;;;;;;;16.50;13.70;;;4.80;99.90;;;;;;5077459;28;20458;-60
2023/11/22 01:12:14;;;;;;;14.20;12.80;;;4.70;99.90;;;;;;5077794;28;20887;-60
2023/11/22 01:14:41;;;;;;;14.23;12.70;;;4.80;99.90;;;;;;5077205;28;20461;-60
2023/11/22 01:17:08;;;;;;;18.37;13.27;;;4.70;99.90;;;;;;5077236;28;20457;-60
2023/11/22 01:19:35;;;;;;;14.93;13.37;;;4.70;99.90;;;;;;5077864;28;20469;-60
2023/11/22 01:22:02;;;;;;;13.70;12.03;;;4.70;99.90;;;;;;5077613;28;20497;-60
2023/11/22 01:24:30;;;;;;;15.40;13.53;;;4.70;99.90;;;;;;5077795;28;20457;-59
2023/11/22 01:26:58;;;;;;;16.30;13.53;;;4.70;99.90;;;;;;5077155;28;20457;-60
2023/11/22 01:29:26;;;;;;;19.50;13.40;;;4.70;99.90;;;;;;5076091;28;20460;-60
2023/11/22 01:31:53;;;;;;;16.37;13.43;;;4.70;99.90;;;;;;5077319;28;20831;-60
2023/11/22 01:34:21;;;;;;;16.27;13.80;;;4.70;99.90;;;;;;5077427;28;20544;-60
2023/11/22 01:36:51;;;;;;;16.17;13.80;;;4.70;99.90;;;;;;5077306;28;20457;-60
2023/11/22 01:39:18;;;;;;;15.37;13.77;;;4.70;99.90;;;;;;5076598;28;20464;-60
2023/11/22 01:41:46;;;;;;;19.97;14.40;;;4.60;99.90;;;;;;5077499;28;20556;-60
2023/11/22 01:44:14;;;;;;;15.73;12.90;;;4.60;99.90;;;;;;5077426;28;20493;-60
2023/11/22 01:46:42;;;;;;;19.63;14.27;;;4.60;99.90;;;;;;5077323;28;20537;-60
2023/11/22 01:49:11;;;;;;;15.50;13.90;;;4.60;99.90;;;;;;5076998;28;20822;-60
2023/11/22 01:51:40;;;;;;;15.80;13.53;;;4.60;99.90;;;;;;5077446;28;20465;-63
2023/11/22 01:54:09;;;;;;;15.70;13.60;;;4.60;99.90;;;;;;5077291;28;20514;-60
2023/11/22 01:56:38;;;;;;;17.30;14.43;;;4.60;99.90;;;;;;5077435;28;20462;-60
2023/11/22 01:59:06;;;;;;;18.10;14.23;;;4.60;99.90;;;;;;5076582;28;20462;-60
2023/11/22 02:01:34;;;;;;;17.53;14.60;;;4.60;99.90;;;;;;5076594;28;20457;-60
2023/11/22 02:04:01;;;;;;;15.10;13.40;;;4.60;99.90;;;;;;5081308;28;20493;-60
2023/11/22 02:06:30;;;;;;;15.13;13.40;;;4.70;99.90;;;;;;5081109;28;20568;-60
2023/11/22 02:08:57;;;;;;;17.60;15.03;;;4.70;99.90;;;;;;5081101;28;20461;-59
2023/11/22 02:11:27;;;;;;;14.90;13.30;;;4.70;99.90;;;;;;5080879;28;20555;-59
2023/11/22 02:13:55;;;;;;;15.90;14.10;;;4.70;99.90;;;;;;5081383;28;20961;-60
2023/11/22 02:16:23;;;;;;;17.17;15.30;;;4.70;99.90;;;;;;5080601;28;20914;-59
2023/11/22 02:18:51;;;;;;;16.83;15.07;;;4.60;99.90;;;;;;5080605;28;20843;-62
2023/11/22 02:21:19;;;;;;;17.77;15.20;;;4.60;99.90;;;;;;5080537;28;20467;-62
2023/11/22 02:23:47;;;;;;;16.23;14.40;;;4.60;99.90;;;;;;5080730;28;20493;-62
2023/11/22 02:26:17;;;;;;;18.20;15.73;;;4.60;99.90;;;;;;5081025;28;20464;-62
2023/11/22 02:28:44;;;;;;;18.27;16.30;;;4.50;99.90;;;;;;5080566;28;20891;-62
2023/11/22 02:31:12;;;;;;;18.87;15.10;;;4.60;99.90;;;;;;5079752;28;20467;-62
2023/11/22 02:33:40;;;;;;;18.03;16.10;;;4.60;99.90;;;;;;5080571;28;20458;-62
2023/11/22 02:36:08;;;;;;;16.10;14.40;;;4.60;99.90;;;;;;5080379;28;20518;-62
2023/11/22 02:38:35;;;;;;;22.10;15.57;;;4.60;99.90;;;;;;5080900;28;20893;-62
2023/11/22 02:41:04;;;;;;;19.17;14.83;;;4.60;99.90;;;;;;5080513;28;20457;-62
2023/11/22 02:43:31;;;;;;;19.70;16.20;;;4.60;99.90;;;;;;5080399;28;20529;-62
2023/11/22 02:45:58;;;;;;;18.27;15.63;;;4.60;99.90;;;;;;5080017;28;20957;-62
2023/11/22 02:48:25;;;;;;;17.30;15.50;;;4.60;99.90;;;;;;5080415;28;20846;-62
2023/11/22 02:50:54;;;;;;;19.10;17.00;;;4.50;99.90;;;;;;5080061;28;20754;-62
2023/11/22 02:53:21;;;;;;;18.20;16.17;;;4.40;99.90;;;;;;5079903;28;20458;-62
2023/11/22 02:55:48;;;;;;;17.73;15.63;;;4.40;99.90;;;;;;5080640;28;20461;-63
2023/11/22 02:58:17;;;;;;;18.70;15.60;;;4.30;99.90;;;;;;5080349;28;20515;-61
2023/11/22 03:00:44;;;;;;;17.77;15.67;;;4.30;99.90;;;;;;5080153;28;20782;-61
2023/11/22 03:03:13;;;;;;;19.87;15.87;;;4.20;99.90;;;;;;5079626;28;20485;-61
2023/11/22 03:05:41;;;;;;;19.13;15.70;;;4.20;99.90;;;;;;5079313;28;20458;-62
2023/11/22 03:08:09;;;;;;;17.93;14.67;;;4.30;99.90;;;;;;5079362;28;20756;-61
2023/11/22 03:10:36;;;;;;;20.63;16.57;;;4.20;99.90;;;;;;5080016;28;20460;-61
2023/11/22 03:13:05;;;;;;;17.43;15.27;;;4.20;99.90;;;;;;5079407;28;20492;-61
2023/11/22 03:15:33;;;;;;;17.33;14.57;;;4.20;99.90;;;;;;5079722;28;20461;-61
2023/11/22 03:18:01;;;;;;;15.27;13.67;;;4.10;99.90;;;;;;5079979;28;20461;-62
2023/11/22 03:20:28;;;;;;;15.63;14.07;;;4.10;99.90;;;;;;5079658;28;20461;-61
2023/11/22 03:22:55;;;;;;;14.03;12.57;;;4.10;99.90;;;;;;5079445;28;20761;-62
2023/11/22 03:25:23;;;;;;;13.23;11.83;;;4.10;99.90;;;;;;5079495;28;20457;-62
2023/11/22 03:27:50;;;;;;;11.27;10.13;;;4.10;99.90;;;;;;5079796;28;20460;-61
2023/11/22 03:30:17;;;;;;;12.00;10.70;;;4.10;99.90;;;;;;5080243;28;20496;-62
2023/11/22 03:32:46;;;;;;;11.60;10.03;;;4.10;99.90;;;;;;5070591;28;20465;-62
2023/11/22 03:35:13;;;;;;;11.33;10.13;;;4.10;99.90;;;;;;5059678;28;20459;-62
2023/11/22 03:37:40;;;;;;;13.13;11.60;;;4.00;99.90;;;;;;5059214;28;20458;-62
2023/11/22 03:40:09;;;;;;;12.33;11.03;;;3.90;99.90;;;;;;5058536;28;20501;-62
2023/11/22 03:42:38;;;;;;;12.20;10.53;;;4.00;99.90;;;;;;5059402;28;20466;-61
2023/11/22 03:45:06;;;;;;;11.63;10.43;;;4.00;99.90;;;;;;5059099;28;20493;-62
2023/11/22 03:47:36;;;;;;;12.10;10.80;;;4.00;99.90;;;;;;5059304;28;20760;-61
2023/11/22 03:50:06;;;;;;;11.70;10.50;;;4.10;99.90;;;;;;5059422;28;20823;-61
2023/11/22 03:52:33;;;;;;;12.37;11.00;;;4.10;99.90;;;;;;5059244;28;20459;-61
2023/11/22 03:55:01;;;;;;;12.07;10.77;;;4.10;99.90;;;;;;5059004;28;20545;-62
2023/11/22 03:57:28;;;;;;;11.20;9.80;;;4.10;99.90;;;;;;5058304;28;20487;-61
2023/11/22 03:59:55;;;;;;;11.63;10.30;;;4.20;99.90;;;;;;5057299;28;20481;-61
2023/11/22 04:02:22;;;;;;;14.60;10.70;;;4.20;99.90;;;;;;5058025;28;20537;-61
2023/11/22 04:04:49;;;;;;;11.77;9.93;;;4.10;99.90;;;;;;5057071;28;20565;-61
2023/11/22 04:07:18;;;;;;;11.67;10.47;;;4.00;99.90;;;;;;5056916;28;20493;-61
2023/11/22 04:09:46;;;;;;;14.20;9.90;;;4.00;99.90;;;;;;5057252;28;20513;-61
2023/11/22 04:12:13;;;;;;;10.80;8.93;;;3.80;99.90;;;;;;5056865;28;20545;-60
2023/11/22 04:14:40;;;;;;;11.70;10.30;;;3.80;99.90;;;;;;5058761;28;20550;-61
2023/11/22 04:17:07;;;;;;;11.33;10.10;;;3.80;99.90;;;;;;5058469;28;20458;-61
2023/11/22 04:19:34;;;;;;;10.70;9.43;;;3.70;99.90;;;;;;5058372;28;20469;-61
2023/11/22 04:22:01;;;;;;;10.57;9.47;;;3.70;99.90;;;;;;5058792;28;20918;-61
2023/11/22 04:24:30;;;;;;;10.97;9.00;;;3.70;99.90;;;;;;5057673;28;20950;-62
2023/11/22 04:26:58;;;;;;;12.80;9.63;;;3.70;99.90;;;;;;5057905;28;20576;-61
2023/11/22 04:29:25;;;;;;;13.73;10.20;;;3.60;99.90;;;;;;5057545;28;20502;-61
2023/11/22 04:31:52;;;;;;;10.27;9.20;;;3.60;99.90;;;;;;5058077;28;20552;-61
2023/11/22 04:34:20;;;;;;;11.50;10.30;;;3.50;99.90;;;;;;5058473;28;20905;-61
2023/11/22 04:36:47;;;;;;;11.93;10.60;;;3.40;99.90;;;;;;5058417;28;20498;-61
2023/11/22 04:39:15;;;;;;;12.23;10.40;;;3.30;99.90;;;;;;5068413;28;20465;-62
2023/11/22 04:41:43;;;;;;;12.10;10.80;;;3.20;99.90;;;;;;5077997;28;20468;-62
2023/11/22 04:44:11;;;;;;;13.07;10.90;;;3.10;99.90;;;;;;5078042;28;20496;-61
2023/11/22 04:46:38;;;;;;;10.57;8.47;;;3.10;99.90;;;;;;5078250;28;20878;-61
2023/11/22 04:49:07;;;;;;;11.70;10.27;;;2.90;99.90;;;;;;5078116;28;20461;-61
2023/11/22 04:51:34;;;;;;;12.23;9.30;;;2.80;99.90;;;;;;5078010;28;20511;-61
2023/11/22 04:54:02;;;;;;;12.73;9.13;;;2.80;99.90;;;;;;5078014;28;20553;-62
2023/11/22 04:56:29;;;;;;;10.63;8.83;;;2.80;99.90;;;;;;5078093;28;20489;-61
2023/11/22 04:58:58;;;;;;;11.73;9.43;;;2.70;99.90;;;;;;5077574;28;20561;-61
2023/11/22 05:01:26;;;;;;;14.43;10.57;;;2.70;99.90;;;;;;5077694;28;20464;-61
2023/11/22 05:03:53;;;;;;;12.13;10.10;;;2.60;99.90;;;;;;5078069;28;20485;-61
2023/11/22 05:06:21;;;;;;;12.47;11.03;;;2.60;99.90;;;;;;5077581;28;20477;-60
2023/11/22 05:08:48;;;;;;;12.30;9.70;;;2.60;99.90;;;;;;5076877;28;20830;-60
2023/11/22 05:11:16;;;;;;;12.80;8.97;;;2.60;99.90;;;;;;5077390;28;20564;-60
2023/11/22 05:13:45;;;;;;;11.90;10.27;;;2.60;99.90;;;;;;5077379;28;20518;-60
2023/11/22 05:16:14;;;;;;;10.27;9.07;;;2.50;99.90;;;;;;5077659;28;20468;-59
2023/11/22 05:18:41;;;;;;;11.10;9.57;;;2.50;99.90;;;;;;5078176;28;20758;-59
2023/11/22 05:21:08;;;;;;;11.93;10.73;;;2.50;99.90;;;;;;5077232;28;20461;-59
2023/11/22 05:23:37;;;;;;;9.40;8.50;;;2.50;99.90;;;;;;5077343;28;20587;-58
2023/11/22 05:26:04;;;;;;;13.20;9.50;;;2.50;99.90;;;;;;5077591;28;20552;-59
2023/11/22 05:28:35;;;;;;;11.97;9.70;;;2.40;99.90;;;;;;5077838;28;20457;-58
2023/11/22 05:31:02;;;;;;;10.97;9.77;;;2.30;99.90;;;;;;5077358;28;20501;-59
2023/11/22 05:33:32;;;;;;;11.63;9.87;;;2.30;99.90;;;;;;5077411;28;20540;-59
2023/11/22 05:35:59;;;;;;;13.10;10.53;;;2.30;99.90;;;;;;5077153;28;20465;-58
2023/11/22 05:38:26;;;;;;;12.67;9.97;;;2.20;99.90;;;;;;5077346;28;20498;-58
2023/11/22 05:40:54;;;;;;;13.90;10.23;;;2.20;99.90;;;;;;5077245;28;20453;-58
2023/11/22 05:43:25;;;;;;;11.17;9.93;;;2.20;99.90;;;;;;5077532;28;20465;-59
2023/11/22 05:45:52;;;;;;;11.50;9.57;;;2.20;99.90;;;;;;5076705;28;20458;-59
2023/11/22 05:48:20;;;;;;;12.33;10.93;;;2.10;99.90;;;;;;5077326;28;20461;-58
2023/11/22 05:50:49;;;;;;;11.83;10.50;;;2.10;99.90;;;;;;5077375;28;20457;-59
2023/11/22 05:53:19;;;;;;;12.07;9.77;;;2.00;99.90;;;;;;5077318;28;20461;-59
2023/11/22 05:55:47;;;;;;;13.17;10.47;;;2.10;99.90;;;;;;5075298;28;20458;-58
2023/11/22 05:58:16;;;;;;;12.53;10.60;;;2.00;99.90;;;;;;5076381;28;20467;-59
2023/11/22 06:00:43;;;;;;;14.43;11.57;;;2.00;99.90;;;;;;5075933;28;20551;-58
2023/11/22 06:03:11;;;;;;;10.97;9.80;;;1.90;99.90;;;;;;5076236;28;20457;-58
2023/11/22 06:05:39;;;;;;;13.77;10.93;;;1.90;99.90;;;;;;5075947;28;20595;-59
2023/11/22 06:08:09;;;;;;;11.83;10.10;;;1.90;99.90;;;;;;5076280;28;20476;-59
2023/11/22 06:10:38;;;;;;;11.13;9.60;;;1.80;99.90;;;;;;5077506;28;20508;-58
2023/11/22 06:13:05;;;;;;;12.00;9.73;;;1.80;99.90;;;;;;5076473;28;20518;-59
2023/11/22 06:15:33;;;;;;;15.67;10.37;;;1.70;99.90;;;;;;5075180;28;20449;-58
2023/11/22 06:18:00;;;;;;;12.90;9.93;;;1.70;99.90;;;;;;5076628;28;20461;-59
2023/11/22 06:20:27;;;;;;;11.17;9.83;;;1.60;99.90;;;;;;5076255;28;20834;-59
2023/11/22 06:22:55;;;;;;;10.93;9.60;;;1.70;99.90;;;;;;5077333;28;20432;-59
2023/11/22 06:25:24;;;;;;;11.90;10.50;;;1.60;99.90;;;;;;5076302;28;20580;-59
2023/11/22 06:27:51;;;;;;;12.60;10.27;;;1.60;99.90;;;;;;5075799;28;20453;-58
2023/11/22 06:30:19;;;;;;;12.90;10.07;;;1.60;99.90;;;;;;5076723;28;20475;-59
2023/11/22 06:32:46;;;;;;;14.43;11.60;;;1.50;99.90;;;;;;5075301;28;20831;-59
2023/11/22 06:35:14;;;;;;;12.90;11.33;;;1.60;99.90;;;;;;5075635;28;20445;-58
2023/11/22 06:37:42;;;;;;;12.97;10.77;;;1.60;99.90;;;;;;5076789;28;20804;-58
2023/11/22 06:40:12;;;;;;;15.53;10.50;;;1.60;99.90;;;;;;5076291;28;20463;-58
2023/11/22 06:42:41;;;;;;;13.27;9.80;;;1.50;99.90;;;;;;5076895;28;20912;-61
2023/11/22 06:45:09;;;;;;;11.47;9.93;;;1.60;99.90;;;;;;5076465;28;20796;-62
2023/11/22 06:47:37;;;;;;;13.20;10.80;;;1.60;99.90;;;;;;5076906;28;20750;-61
2023/11/22 06:50:08;;;;;;;15.73;11.30;;;1.50;99.90;;;;;;5080625;28;20462;-61
2023/11/22 06:52:36;;;;;;;16.40;11.93;;;1.50;99.90;;;;;;5080477;28;20460;-61
2023/11/22 06:55:04;;;;;;;16.37;12.00;;;1.40;99.90;;;;;;5079054;28;20465;-62
2023/11/22 06:57:31;;;;;;;15.23;12.40;;;1.40;99.90;;;;;;5079822;28;20457;-61
2023/11/22 07:00:01;;;;;;;15.10;12.53;;;1.30;99.90;;;;;;5080087;28;20948;-62
2023/11/22 07:02:28;;;;;;;14.80;11.90;;;1.30;99.90;;;;;;5080471;28;20519;-62
2023/11/22 07:04:55;;;;;;;14.43;10.97;;;1.30;99.90;;;;;;5079449;28;20572;-62
2023/11/22 07:07:22;;;;;;;15.17;12.90;;;1.20;99.90;;;;;;5079619;28;20521;-62
2023/11/22 07:09:50;;;;;;;17.00;12.90;;;1.30;99.90;;;;;;5079684;28;20765;-62
2023/11/22 07:12:19;;;;;;;16.20;12.33;;;1.20;99.90;;;;;;5077684;28;20527;-63
2023/11/22 07:14:46;;;;;;;17.90;13.57;;;1.20;99.90;;;;;;5078806;28;20461;-62
2023/11/22 07:17:15;;;;;;;16.53;13.37;;;1.20;99.90;;;;;;5076974;28;20461;-62
2023/11/22 07:19:46;;;;;;;14.97;12.07;;;1.20;99.90;;;;;;5077955;28;20500;-62
2023/11/22 07:22:17;;;;;;;16.63;13.60;;;1.20;99.90;;;;;;5071075;28;20833;-63
2023/11/22 07:24:45;;;;;;;18.60;13.50;;;1.10;99.90;;;;;;5076725;28;20513;-62
2023/11/22 07:27:13;;;;;;;18.80;13.23;;;1.20;99.90;;;;;;5079253;28;20460;-63
2023/11/22 07:29:42;;;;;;;15.30;12.17;;;1.20;99.90;;;;;;5077888;28;20458;-62
2023/11/22 07:32:09;;;;;;;17.43;13.50;;;1.20;99.90;;;;;;5078505;28;20585;-63
2023/11/22 07:34:40;;;;;;;14.37;12.47;;;1.20;99.90;;;;;;5078734;28;20773;-62
2023/11/22 07:37:08;;;;;;;15.70;12.97;;;1.20;99.90;;;;;;5078532;28;20435;-62
2023/11/22 07:39:38;;;;;;;17.77;13.70;;;1.20;99.90;;;;;;5076779;28;20572;-62
2023/11/22 07:42:07;;;;;;;17.87;14.67;;;1.30;99.90;;;;;;5077574;28;20560;-63
2023/11/22 07:44:37;;;;;;;24.90;14.07;;;1.30;99.90;;;;;;5079579;28;20584;-62
2023/11/22 07:47:07;;;;;;;17.23;13.40;;;1.40;99.90;;;;;;5078108;28;20556;-62
2023/11/22 07:49:37;;;;;;;17.27;14.27;;;1.40;99.90;;;;;;5078033;28;20461;-62
2023/11/22 07:52:06;;;;;;;34.53;21.57;;;1.60;99.90;;;;;;5079328;28;20466;-62
2023/11/22 07:54:35;;;;;;;40.80;23.70;;;1.80;99.90;;;;;;5080184;28;20827;-62
2023/11/22 07:57:02;;;;;;;68.83;37.63;;;1.90;99.90;;;;;;5079403;28;20563;-62
2023/11/22 07:59:30;;;;;;;24.97;18.20;;;2.00;99.90;;;;;;5078212;28;20458;-62
2023/11/22 08:01:57;;;;;;;36.83;24.27;;;2.10;99.90;;;;;;5079307;28;20495;-62
2023/11/22 08:04:25;;;;;;;16.57;14.37;;;2.30;99.90;;;;;;5079135;28;20573;-63
2023/11/22 08:06:52;;;;;;;16.17;14.13;;;2.50;99.90;;;;;;5078800;28;20766;-63
2023/11/22 08:09:22;;;;;;;19.00;14.30;;;2.70;99.90;;;;;;5079180;28;20890;-63
2023/11/22 08:11:49;;;;;;;17.60;14.50;;;2.90;99.90;;;;;;5078467;28;20457;-63
2023/11/22 08:14:17;;;;;;;18.93;14.33;;;3.00;99.90;;;;;;5079057;28;20971;-63
2023/11/22 08:16:45;;;;;;;17.10;14.60;;;3.10;99.90;;;;;;5079010;28;20450;-65
2023/11/22 08:19:13;;;;;;;23.13;16.40;;;3.20;99.90;;;;;;5078780;28;20453;-65
2023/11/22 08:21:40;;;;;;;26.60;21.43;;;3.30;99.90;;;;;;5077153;28;20540;-65
2023/11/22 08:24:08;;;;;;;25.00;20.63;;;3.40;99.90;;;;;;5077873;28;20497;-66
2023/11/22 08:26:37;;;;;;;19.37;17.10;;;3.40;99.90;;;;;;5077318;28;20776;-66
2023/11/22 08:29:05;;;;;;;21.00;16.00;;;3.10;99.90;;;;;;5076727;28;20824;-67
2023/11/22 08:31:32;;;;;;;21.97;18.20;;;3.10;99.90;;;;;;5076668;28;20460;-66
2023/11/22 08:33:59;;;;;;;23.33;17.53;;;3.30;99.90;;;;;;5076637;28;20488;-66
2023/11/22 08:36:28;;;;;;;23.73;18.20;;;3.50;99.90;;;;;;5076826;28;20429;-67
2023/11/22 08:38:55;;;;;;;23.20;17.23;;;3.70;99.90;;;;;;5076615;28;20894;-67
2023/11/22 08:41:23;;;;;;;25.23;16.33;;;4.00;99.90;;;;;;5076253;28;20480;-67
2023/11/22 08:43:52;;;;;;;18.17;15.07;;;4.10;99.90;;;;;;5076351;28;20560;-67
2023/11/22 08:46:19;;;;;;;19.67;16.23;;;4.20;99.90;;;;;;5075044;28;20467;-68
2023/11/22 08:48:47;;;;;;;17.47;15.13;;;3.70;99.90;;;;;;5076525;28;20461;-67
2023/11/22 08:51:15;;;;;;;14.50;11.33;;;4.00;99.90;;;;;;5076437;28;20432;-66
2023/11/22 08:53:44;;;;;;;18.03;13.47;;;4.00;99.90;;;;;;5076258;28;20551;-66
2023/11/22 08:56:11;;;;;;;17.50;14.30;;;3.90;99.90;;;;;;5076276;28;20481;-67
2023/11/22 08:58:39;;;;;;;15.60;13.80;;;4.10;99.90;;;;;;5078201;28;20463;-66
2023/11/22 09:01:08;;;;;;;14.60;11.47;;;4.40;99.90;;;;;;5077623;28;20764;-66
2023/11/22 09:03:36;;;;;;;11.43;10.23;;;4.60;99.90;;;;;;5077416;28;20493;-66
2023/11/22 09:06:04;;;;;;;12.23;9.27;;;4.90;99.90;;;;;;5077232;28;20493;-66
2023/11/22 09:08:31;;;;;;;18.73;10.57;;;5.10;99.90;;;;;;5076230;28;20488;-66
2023/11/22 09:10:58;;;;;;;14.00;10.47;;;5.30;99.90;;;;;;5072383;28;20459;-62
2023/11/22 09:13:29;;;;;;;10.50;8.87;;;5.50;99.90;;;;;;5073744;28;20907;-63
2023/11/22 09:15:57;;;;;;;11.20;8.40;;;5.70;99.90;;;;;;5075005;28;20462;-63
2023/11/22 09:18:26;;;;;;;8.60;6.90;;;5.80;99.90;;;;;;5073915;28;20453;-63
2023/11/22 09:20:54;;;;;;;14.10;11.40;;;5.80;1.00;;;;;;5075329;28;20468;-64
2023/11/22 09:23:21;;;;;;;10.40;8.80;;;5.70;99.90;;;;;;5075264;28;20560;-63
2023/11/22 09:25:48;;;;;;;11.10;8.27;;;5.80;1.00;;;;;;5075366;28;20546;-63
2023/11/22 09:28:16;;;;;;;9.97;6.93;;;6.10;99.90;;;;;;5075519;28;20783;-64
2023/11/22 09:30:44;;;;;;;10.43;8.03;;;6.20;99.90;;;;;;5074449;28;20499;-64
2023/11/22 09:33:14;;;;;;;8.30;7.07;;;6.30;66.80;;;;;;5073923;28;20473;-64
2023/11/22 09:35:45;;;;;;;7.63;6.80;;;6.30;1.00;;;;;;5075124;28;20794;-64
2023/11/22 09:38:13;;;;;;;8.30;6.50;;;6.30;1.00;;;;;;5076208;28;20789;-64
2023/11/22 09:40:43;;;;;;;7.70;5.93;;;6.20;1.00;;;;;;5076917;28;20457;-65
2023/11/22 09:43:11;;;;;;;6.50;5.37;;;6.10;1.00;;;;;;5076762;28;20914;-65
2023/11/22 09:45:39;;;;;;;7.63;5.63;;;6.00;1.00;;;;;;5077339;28;20489;-65
2023/11/22 09:48:15;;;;;;;8.90;5.27;;;6.00;1.00;;;;;;5077732;28;20468;-65
2023/11/22 09:50:51;;;;;;;6.80;6.10;;;5.90;1.00;;;;;;5077311;28;20763;-65
2023/11/22 09:53:26;;;;;;;8.83;6.07;;;6.00;1.00;;;;;;5077113;28;20556;-65
2023/11/22 09:55:54;;;;;;;7.83;6.07;;;6.10;1.00;;;;;;5077056;28;20514;-65
2023/11/22 09:58:24;;;;;;;6.70;5.40;;;6.10;1.00;;;;;;5077585;28;20767;-65
2023/11/22 10:00:52;;;;;;;9.00;5.83;;;6.10;1.00;;;;;;5076728;28;20515;-65
2023/11/22 10:03:20;;;;;;;7.17;5.60;;;6.00;1.00;;;;;;5076867;28;20461;-65
2023/11/22 10:05:49;;;;;;;7.43;5.27;;;6.00;1.00;;;;;;5076895;28;20489;-65
2023/11/22 10:08:18;;;;;;;10.43;5.80;;;5.90;1.00;;;;;;5077228;28;20515;-64
2023/11/22 10:10:48;;;;;;;8.77;5.20;;;5.90;1.00;;;;;;5077310;28;20457;-65
2023/11/22 10:13:15;;;;;;;7.53;5.50;;;5.90;1.00;;;;;;5077035;28;20469;-65
2023/11/22 10:15:42;;;;;;;6.97;5.70;;;5.90;1.00;;;;;;5077136;28;20503;-65
2023/11/22 10:18:10;;;;;;;8.07;6.10;;;6.00;1.00;;;;;;5077017;28;20457;-65
2023/11/22 10:20:39;;;;;;;9.30;6.50;;;6.00;1.00;;;;;;5076536;28;20457;-65
2023/11/22 10:23:11;;;;;;;8.80;6.03;;;6.00;1.00;;;;;;5078092;28;20539;-65
2023/11/22 10:25:43;;;;;;;9.23;5.63;;;5.80;1.00;;;;;;5080843;28;20922;-65
2023/11/22 10:28:11;;;;;;;7.93;5.47;;;5.70;1.00;;;;;;5080838;28;20458;-65
2023/11/22 10:30:40;;;;;;;8.83;5.87;;;5.80;1.00;;;;;;5080345;28;20461;-65
2023/11/22 10:33:07;;;;;;;7.73;5.70;;;5.90;1.00;;;;;;5080023;28;20469;-66
2023/11/22 10:35:36;;;;;;;6.23;4.90;;;6.00;1.00;;;;;;5080664;28;20507;-65
2023/11/22 10:38:06;;;;;;;8.10;5.10;;;6.00;1.00;;;;;;5079172;28;20547;-65
2023/11/22 10:40:37;;;;;;;7.90;4.40;;;6.10;1.00;;;;;;5078347;28;20669;-65
2023/11/22 10:43:04;;;;;;;5.50;4.50;;;6.10;1.00;;;;;;5079154;28;20544;-65
2023/11/22 10:45:32;;;;;;;5.17;4.67;;;6.20;1.00;;;;;;5079262;28;20757;-65
2023/11/22 10:48:01;;;;;;;5.40;4.87;;;6.10;1.00;;;;;;5077181;28;20466;-65
2023/11/22 10:50:29;;;;;;;5.60;4.83;;;6.20;1.00;;;;;;5079126;28;20453;-65
2023/11/22 10:53:00;;;;;;;5.43;4.50;;;6.10;1.00;;;;;;5079674;28;20460;-65
2023/11/22 10:55:28;;;;;;;5.70;3.83;;;6.20;1.00;;;;;;5079076;28;20878;-65
2023/11/22 10:58:02;;;;;;;4.00;2.93;;;6.00;1.00;;;;;;5079806;28;20469;-65
2023/11/22 11:00:32;;;;;;;4.10;2.80;;;5.90;1.00;;;;;;5079253;28;20495;-65
2023/11/22 11:03:04;;;;;;;3.10;2.57;;;6.00;1.00;;;;;;5080213;28;20773;-65
2023/11/22 11:05:32;;;;;;;3.40;2.70;;;6.10;1.00;;;;;;5079821;28;20492;-65
2023/11/22 11:08:09;;;;;;;3.43;2.90;;;6.10;1.00;;;;;;5079896;28;20481;-64
2023/11/22 11:10:37;;;;;;;3.57;2.83;;;6.20;1.00;;;;;;5080105;28;20511;-64
2023/11/22 11:13:06;;;;;;;3.20;2.43;;;6.10;1.00;;;;;;5077532;28;20474;-64
2023/11/22 11:15:34;;;;;;;3.10;2.70;;;6.10;1.00;;;;;;5078984;28;20481;-64
2023/11/22 11:18:02;;;;;;;4.17;3.27;;;6.10;1.00;;;;;;5078171;28;20457;-64
2023/11/22 11:20:33;;;;;;;3.10;2.67;;;6.10;1.00;;;;;;5078449;28;20869;-64
2023/11/22 11:23:05;;;;;;;4.00;3.03;;;6.20;1.00;;;;;;5079356;28;20515;-64
2023/11/22 11:25:34;;;;;;;6.20;3.70;;;6.20;1.00;;;;;;5079955;28;20507;-64
2023/11/22 11:28:03;;;;;;;5.57;3.80;;;6.20;1.00;;;;;;5079893;28;20510;-64
2023/11/22 11:30:48;;;;;;;5.47;3.20;;;6.30;1.00;;;;;;5079356;28;20484;-64
2023/11/22 11:33:17;;;;;;;5.73;3.50;;;6.60;1.00;;;;;;5079367;28;20460;-63
2023/11/22 11:35:47;;;;;;;6.40;4.10;;;6.80;1.00;;;;;;5079364;28;20462;-63
2023/11/22 11:38:17;;;;;;;5.53;3.97;;;7.10;1.00;;;;;;5078858;28;20436;-63
2023/11/22 11:40:46;;;;;;;7.90;3.67;;;7.40;1.00;;;;;;5078695;28;20457;-63
2023/11/22 11:43:14;;;;;;;4.67;3.57;;;7.50;1.00;;;;;;5078345;28;20461;-63
2023/11/22 11:45:46;;;;;;;4.80;2.93;;;7.50;1.00;;;;;;5078614;28;20481;-64
2023/11/22 11:48:16;;;;;;;2.90;2.60;;;7.40;1.00;;;;;;5079017;28;20468;-63
2023/11/22 11:50:44;;;;;;;3.87;2.63;;;7.40;1.00;;;;;;5079317;28;20560;-63
2023/11/22 11:53:11;;;;;;;5.40;3.00;;;7.50;1.00;;;;;;5078507;28;20462;-64
2023/11/22 11:55:39;;;;;;;5.33;3.13;;;7.60;1.00;;;;;;5077543;28;20934;-63
2023/11/22 11:58:09;;;;;;;4.80;3.10;;;7.50;1.00;;;;;;5079145;28;20465;-63
2023/11/22 12:00:40;;;;;;;4.77;3.70;;;7.60;1.00;;;;;;5078865;28;20473;-63
2023/11/22 12:03:09;;;;;;;4.47;2.87;;;7.70;99.90;;;;;;5077669;28;20508;-63
2023/11/22 12:05:39;;;;;;;4.23;2.90;;;7.40;99.90;;;;;;5077419;28;20555;-63
2023/11/22 12:08:06;;;;;;;5.27;2.70;;;7.00;99.90;;;;;;5077065;28;20493;-63
2023/11/22 12:10:34;;;;;;;5.00;2.97;;;6.70;99.90;;;;;;5076708;28;20901;-63
2023/11/22 12:13:01;;;;;;;4.37;2.83;;;6.80;99.90;;;;;;5077754;28;20955;-63
2023/11/22 12:15:29;;;;;;;3.37;2.70;;;6.60;99.90;;;;;;5079106;28;20462;-63
2023/11/22 12:17:58;;;;;;;5.23;3.40;;;6.20;99.90;;;;;;5078119;28;20463;-61
2023/11/22 12:20:31;;;;;;;2.93;2.63;;;6.10;99.90;;;;;;5077352;28;20458;-61
2023/11/22 12:23:00;;;;;;;4.60;2.50;;;6.10;99.90;;;;;;5076780;28;20493;-61
2023/11/22 12:25:28;;;;;;;3.77;2.50;;;6.20;99.90;;;;;;5076950;28;20465;-61
2023/11/22 12:27:56;;;;;;;3.27;2.80;;;6.50;99.90;;;;;;5077679;28;20461;-61
2023/11/22 12:30:34;;;;;;;3.27;2.83;;;6.80;99.90;;;;;;5076907;28;20838;-60
2023/11/22 12:33:07;;;;;;;2.87;2.50;;;6.90;99.90;;;;;;5076647;28;20874;-61
2023/11/22 12:35:35;;;;;;;2.97;2.57;;;7.00;99.90;;;;;;5075009;28;20515;-60
2023/11/22 12:38:06;;;;;;;2.93;2.60;;;7.20;99.90;;;;;;5072517;28;20466;-60
2023/11/22 12:40:34;;;;;;;3.20;2.90;;;6.80;99.90;;;;;;5075663;28;20480;-61
2023/11/22 12:43:03;;;;;;;4.40;3.20;;;7.00;99.90;;;;;;5077543;28;20792;-60
2023/11/22 12:45:37;;;;;;;3.53;3.03;;;7.20;99.90;;;;;;5077527;28;20446;-60
2023/11/22 12:48:23;;;;;;;3.73;3.10;;;7.10;99.90;;;;;;5078580;28;20456;-60
2023/11/22 12:50:51;;;;;;;4.63;3.47;;;7.40;99.90;;;;;;5077421;28;20436;-58